To NAV CANADA Home Page Login to a new session Search on AWWS site Feedback and Comments Disclaimer Vers la page française équivalente Tips FAQ What's new on the site To the Forecasts and Observations / NOTAM section To "File a Flight Plan" website Publications and other links Update of the User's profile FIC Telephone Numbers My Weather Data Folder Route Weather Data Regional Weather Data Local Weather Data To the Forecasts and Observations / NOTAM section
Request Generated 04/23/2014 at 14:53:31 UTC . Weather information available at that time is displayed.

METAR/TAF

SWIFT CURRENT/SK    (show WxCam)

SPECI CYYN 231423Z AUTO 16006KT 9SM -RA BKN023 OVC034 05/04 A2944 RMK
SLP973 DENSITY ALT 2700FT=
METAR CYYN 231400Z AUTO 16007KT 9SM -RA OVC027 05/04 A2944 RMK
SLP975=
METAR CYYN 231300Z AUTO 11007KT 9SM -RA SCT031 OVC048 05/04 A2944 RMK
PCPN 1.5MM PAST HR SLP972 DENSITY ALT 2700FT=
SPECI CYYN 231230Z AUTO /////KT 6SM -RA BR BKN043 OVC050 05/04 A2944
RMK PCPN 1.5MM PAST HR WND MISG SLP971 DENSITY ALT 2700FT=
SPECI CYYN 231213Z AUTO /////KT 5SM -RA BR BKN045 OVC060 05/04 A2945
RMK PCPN 0.5MM PAST HR WND MISG SLP973 DENSITY ALT 2700FT=
METAR CYYN 231200Z AUTO /////KT 9SM -RA SCT042 OVC065 06/04 A2944 RMK
WND MISG SLP970 DENSITY ALT 2700FT=

TAF CYYN 231138Z 2312/2324 13010G20KT P6SM -RA SCT015 OVC080 TEMPO
2312/2318 5SM -RA BR SCT005 OVC015
FM231800 27015KT 5SM -RA BR FEW003 OVC005 TEMPO 2318/2323 P6SM
-RA SCT005 OVC020
FM232300 28018G28KT P6SM OVC025 TEMPO 2323/2324 OVC020
RMK FCST BASED ON AUTO OBS. NXT FCST BY 231800Z=
Your time UTC time
Weather data provided by Environment Canada and NAV CANADA